createdAt,value
2022-12-24T00:01:34.254Z,100281.06
2022-12-24T00:04:00.964Z,100270.66
2022-12-24T00:06:27.521Z,100272.16
2022-12-24T00:08:54.105Z,100279.84
2022-12-24T00:11:21.090Z,100276.75
2022-12-24T00:13:48.268Z,100283.16
2022-12-24T00:16:15.207Z,100280.91
2022-12-24T00:18:46.239Z,100285.91
2022-12-24T00:21:14.017Z,100290.53
2022-12-24T00:23:41.240Z,100286.84
2022-12-24T00:26:07.929Z,100281.59
2022-12-24T00:28:34.519Z,100287.28
2022-12-24T00:31:08.012Z,100289.50
2022-12-24T00:33:34.604Z,100286.03
2022-12-24T00:36:01.101Z,100288.38
2022-12-24T00:38:27.654Z,100283.84
2022-12-24T00:41:00.104Z,100292.38
2022-12-24T00:43:26.699Z,100286.19
2022-12-24T00:45:53.229Z,100293.69
2022-12-24T00:48:19.974Z,100294.91
2022-12-24T00:50:46.527Z,100295.16
2022-12-24T00:53:13.096Z,100294.31
2022-12-24T00:55:39.662Z,100293.97
2022-12-24T00:58:06.233Z,100294.78
2022-12-24T01:00:33.118Z,100293.34
2022-12-24T01:02:59.883Z,100296.66
2022-12-24T01:05:26.490Z,100293.16
2022-12-24T01:07:54.071Z,100294.19
2022-12-24T01:10:20.773Z,100299.19
2022-12-24T01:12:47.348Z,100301.88
2022-12-24T01:15:15.164Z,100305.41
2022-12-24T01:17:41.701Z,100306.22
2022-12-24T01:20:13.079Z,100305.41
2022-12-24T01:22:39.620Z,100302.53
2022-12-24T01:25:06.527Z,100311.03
2022-12-24T01:27:33.265Z,100302.53
2022-12-24T01:29:59.827Z,100315.63
2022-12-24T01:32:26.342Z,100304.59
2022-12-24T01:34:52.884Z,100314.78
2022-12-24T01:37:19.391Z,100309.59
2022-12-24T01:39:45.933Z,100324.56
2022-12-24T01:42:41.261Z,100321.41
2022-12-24T01:45:45.351Z,100318.06
2022-12-24T01:48:19.778Z,100332.84
2022-12-24T01:50:47.111Z,100325.75
2022-12-24T01:53:15.614Z,100326.03
2022-12-24T01:55:43.616Z,100329.97
2022-12-24T01:58:12.257Z,100327.06
2022-12-24T02:00:38.848Z,100331.03
2022-12-24T02:03:05.655Z,100326.66
2022-12-24T02:05:40.957Z,100332.25
2022-12-24T02:08:08.726Z,100335.41
2022-12-24T02:10:35.266Z,100345.59
2022-12-24T02:13:03.347Z,100340.16
2022-12-24T02:15:52.940Z,100350.19
2022-12-24T02:18:29.585Z,100350.75
2022-12-24T02:21:02.173Z,100356.56
2022-12-24T02:23:34.472Z,100345.56
2022-12-24T02:26:19.444Z,100348.72
2022-12-24T02:29:08.591Z,100352.84
2022-12-24T02:32:02.179Z,100361.00
2022-12-24T02:34:36.328Z,100359.97
2022-12-24T02:37:28.530Z,100354.53
2022-12-24T02:40:16.819Z,100361.19
2022-12-24T02:42:49.137Z,100357.88
2022-12-24T02:45:18.605Z,100355.38
2022-12-24T02:47:46.592Z,100356.41
2022-12-24T02:50:15.797Z,100360.78
2022-12-24T02:52:44.421Z,100353.91
2022-12-24T02:55:19.938Z,100371.78
2022-12-24T02:57:55.056Z,100371.63
2022-12-24T03:00:24.017Z,100373.25
2022-12-24T03:03:13.684Z,100367.47
2022-12-24T03:05:57.121Z,100378.03
2022-12-24T03:08:51.004Z,100372.41
2022-12-24T03:11:18.542Z,100373.88
2022-12-24T03:13:45.553Z,100375.53
2022-12-24T03:16:16.648Z,100385.94
2022-12-24T03:18:47.896Z,100385.94
2022-12-24T03:21:20.869Z,100384.50
2022-12-24T03:23:47.973Z,100399.03
2022-12-24T03:26:18.310Z,100394.06
2022-12-24T03:28:46.209Z,100394.06
2022-12-24T03:31:13.760Z,100394.50
2022-12-24T03:33:40.863Z,100399.47
2022-12-24T03:36:08.534Z,100406.53
2022-12-24T03:38:35.645Z,100409.88
2022-12-24T03:41:02.474Z,100411.31
2022-12-24T03:43:29.203Z,100413.19
2022-12-24T03:45:55.769Z,100412.56
2022-12-24T03:48:26.033Z,100413.81
2022-12-24T03:50:55.573Z,100418.16
2022-12-24T03:53:22.080Z,100415.47
2022-12-24T03:55:48.550Z,100423.56
2022-12-24T03:58:15.060Z,100428.56
2022-12-24T04:00:41.598Z,100430.44
2022-12-24T04:03:08.317Z,100431.09
2022-12-24T04:05:34.900Z,100433.97
2022-12-24T04:08:01.449Z,100436.28
2022-12-24T04:10:28.019Z,100437.31
2022-12-24T04:12:54.548Z,100438.53
2022-12-24T04:15:21.045Z,100450.84
2022-12-24T04:17:47.561Z,100446.66
2022-12-24T04:20:14.130Z,100438.75
2022-12-24T04:22:42.131Z,100443.34
2022-12-24T04:25:09.212Z,100447.72
2022-12-24T04:27:35.816Z,100444.81
2022-12-24T04:30:02.344Z,100444.59
2022-12-24T04:32:28.957Z,100459.56
2022-12-24T04:34:55.520Z,100452.47
2022-12-24T04:37:22.154Z,100457.25
2022-12-24T04:39:48.726Z,100467.03
2022-12-24T04:42:15.574Z,100469.31
2022-12-24T04:44:42.062Z,100473.72
2022-12-24T04:47:08.602Z,100467.66
2022-12-24T04:49:35.103Z,100459.34
2022-12-24T04:52:01.667Z,100459.75
2022-12-24T04:54:28.305Z,100453.31
2022-12-24T04:56:54.800Z,100449.34
2022-12-24T04:59:21.301Z,100451.03
2022-12-24T05:01:47.889Z,100444.16
2022-12-24T05:04:14.517Z,100453.31
2022-12-24T05:06:41.066Z,100453.53
2022-12-24T05:09:07.653Z,100457.66
2022-12-24T05:11:34.131Z,100466.00
2022-12-24T05:14:00.667Z,100455.19
2022-12-24T05:16:27.268Z,100454.38
2022-12-24T05:18:54.476Z,100461.25
2022-12-24T05:21:23.521Z,100459.16
2022-12-24T05:24:09.330Z,100463.31
2022-12-24T05:26:46.441Z,100459.78
2022-12-24T05:29:13.530Z,100465.63
2022-12-24T05:31:40.941Z,100468.53
2022-12-24T05:34:08.636Z,100468.09
2022-12-24T05:36:35.590Z,100471.44
2022-12-24T05:39:02.520Z,100465.59
2022-12-24T05:41:29.156Z,100467.69
2022-12-24T05:43:56.007Z,100469.78
2022-12-24T05:46:24.279Z,100476.88
2022-12-24T05:48:52.431Z,100482.88
2022-12-24T05:51:22.392Z,100479.56
2022-12-24T05:53:51.377Z,100478.94
2022-12-24T05:56:20.676Z,100483.09
2022-12-24T05:58:47.359Z,100479.75
2022-12-24T06:01:14.884Z,100479.16
2022-12-24T06:03:41.886Z,100485.38
2022-12-24T06:06:11.444Z,100488.94
2022-12-24T06:08:39.394Z,100492.69
2022-12-24T06:11:08.931Z,100488.06
2022-12-24T06:13:35.952Z,100492.66
2022-12-24T06:16:05.329Z,100491.59
2022-12-24T06:18:33.500Z,100484.53
2022-12-24T06:21:00.220Z,100491.63
2022-12-24T06:23:29.702Z,100484.75
2022-12-24T06:25:58.291Z,100487.25
2022-12-24T06:28:24.842Z,100484.34
2022-12-24T06:30:53.609Z,100491.63
2022-12-24T06:33:24.341Z,100490.38
2022-12-24T06:35:50.921Z,100494.13
2022-12-24T06:38:17.507Z,100498.69
2022-12-24T06:40:45.577Z,100500.13
2022-12-24T06:43:12.961Z,100496.41
2022-12-24T06:45:40.137Z,100499.34
2022-12-24T06:48:07.215Z,100505.53
2022-12-24T06:50:34.421Z,100509.31
2022-12-24T06:53:00.912Z,100515.97
2022-12-24T06:55:27.761Z,100515.53
2022-12-24T06:57:54.288Z,100510.94
2022-12-24T07:00:22.104Z,100519.91
2022-12-24T07:02:49.183Z,100527.16
2022-12-24T07:05:16.884Z,100534.69
2022-12-24T07:07:45.069Z,100550.91
2022-12-24T07:10:14.845Z,100548.78
2022-12-24T07:12:41.399Z,100549.00
2022-12-24T07:15:09.151Z,100559.63
2022-12-24T07:17:35.998Z,100567.53
2022-12-24T07:20:02.975Z,100564.84
2022-12-24T07:22:29.509Z,100564.84
2022-12-24T07:24:56.067Z,100563.59
2022-12-24T07:27:22.579Z,100556.50
2022-12-24T07:29:49.109Z,100558.78
2022-12-24T07:32:15.700Z,100563.56
2022-12-24T07:34:42.574Z,100568.78
2022-12-24T07:37:09.141Z,100579.38
2022-12-24T07:39:35.652Z,100587.06
2022-12-24T07:42:02.197Z,100588.72
2022-12-24T07:44:28.720Z,100597.88
2022-12-24T07:46:55.289Z,100596.84
2022-12-24T07:49:21.825Z,100601.84
2022-12-24T07:52:06.395Z,100606.22
2022-12-24T07:54:32.920Z,100609.34
2022-12-24T07:56:59.416Z,100619.53
2022-12-24T07:59:25.987Z,100617.63
2022-12-24T08:01:52.640Z,100609.53
2022-12-24T08:04:19.342Z,100603.09
2022-12-24T08:06:45.902Z,100609.72
2022-12-24T08:09:14.511Z,100621.19
2022-12-24T08:11:46.149Z,100620.56
2022-12-24T08:14:16.361Z,100615.13
2022-12-24T08:16:42.918Z,100615.34
2022-12-24T08:19:09.516Z,100612.66
2022-12-24T08:21:36.030Z,100627.22
2022-12-24T08:24:02.558Z,100610.78
2022-12-24T08:26:29.112Z,100613.50
2022-12-24T08:28:55.648Z,100625.97
2022-12-24T08:31:22.263Z,100629.50
2022-12-24T08:33:48.802Z,100628.28
2022-12-24T08:36:15.414Z,100632.00
2022-12-24T08:38:41.911Z,100636.56
2022-12-24T08:41:08.490Z,100644.06
2022-12-24T08:43:34.999Z,100640.75
2022-12-24T08:46:05.990Z,100643.25
2022-12-24T08:48:33.647Z,100644.50
2022-12-24T08:51:00.220Z,100657.59
2022-12-24T08:53:26.716Z,100655.31
2022-12-24T08:55:56.188Z,100663.22
2022-12-24T08:58:22.923Z,100673.41
2022-12-24T09:00:49.469Z,100677.19
2022-12-24T09:03:19.518Z,100680.69
2022-12-24T09:05:50.198Z,100686.09
2022-12-24T09:08:16.826Z,100682.38
2022-12-24T09:10:43.391Z,100673.44
2022-12-24T09:13:09.888Z,100688.41
2022-12-24T09:15:36.505Z,100692.13
2022-12-24T09:18:03.191Z,100696.94
2022-12-24T09:20:30.132Z,100695.28
2022-12-24T09:22:56.648Z,100703.59
2022-12-24T09:25:23.204Z,100694.22
2022-12-24T09:27:49.804Z,100700.25
2022-12-24T09:30:16.494Z,100705.47
2022-12-24T09:32:43.041Z,100712.34
2022-12-24T09:35:09.933Z,100710.25
2022-12-24T09:37:37.672Z,100716.31
2022-12-24T09:40:04.514Z,100721.50
2022-12-24T09:42:52.811Z,100725.47
2022-12-24T09:45:30.089Z,100723.59
2022-12-24T09:48:04.137Z,100725.69
2022-12-24T09:50:39.439Z,100734.81
2022-12-24T09:53:21.119Z,100731.69
2022-12-24T09:55:55.701Z,100740.22
2022-12-24T09:58:37.620Z,100738.97
2022-12-24T10:01:04.360Z,100742.75
2022-12-24T10:03:31.811Z,100746.72
2022-12-24T10:06:14.709Z,100751.91
2022-12-24T10:08:48.532Z,100760.84
2022-12-24T10:11:24.309Z,100759.81
2022-12-24T10:14:09.041Z,100751.28
2022-12-24T10:16:54.934Z,100761.28
2022-12-24T10:19:34.284Z,100757.72
2022-12-24T10:22:08.006Z,100765.22
2022-12-24T10:24:50.497Z,100775.41
2022-12-24T10:27:21.851Z,100777.53
2022-12-24T10:29:58.858Z,100776.69
2022-12-24T10:32:28.677Z,100776.47
2022-12-24T10:35:08.714Z,100770.84
2022-12-24T10:37:35.237Z,100784.19
2022-12-24T10:40:03.403Z,100789.19
2022-12-24T10:42:43.274Z,100785.63
2022-12-24T10:45:22.721Z,100782.94
2022-12-24T10:47:54.793Z,100797.53
2022-12-24T10:50:51.865Z,100791.69
2022-12-24T10:53:24.934Z,100787.31
2022-12-24T10:56:00.671Z,100784.16
2022-12-24T10:58:27.269Z,100783.97
2022-12-24T11:00:54.397Z,100777.31
2022-12-24T11:03:23.911Z,100793.75
2022-12-24T11:06:03.833Z,100796.03
2022-12-24T11:08:30.405Z,100794.38
2022-12-24T11:11:00.016Z,100795.00
2022-12-24T11:13:46.162Z,100804.81
2022-12-24T11:16:25.579Z,100787.50
2022-12-24T11:18:55.440Z,100789.59
2022-12-24T11:21:25.872Z,100789.38
2022-12-24T11:23:56.587Z,100793.97
2022-12-24T11:26:25.915Z,100793.53
2022-12-24T11:29:22.008Z,100794.38
2022-12-24T11:31:50.656Z,100790.59
2022-12-24T11:34:28.914Z,100796.03
2022-12-24T11:37:20.017Z,100797.09
2022-12-24T11:39:50.336Z,100794.41
2022-12-24T11:42:45.339Z,100805.22
2022-12-24T11:45:23.917Z,100795.84
2022-12-24T11:47:51.556Z,100799.81
2022-12-24T11:50:27.241Z,100783.97
2022-12-24T11:53:06.956Z,100783.97
2022-12-24T11:55:49.591Z,100784.56
2022-12-24T11:58:34.181Z,100787.88
2022-12-24T12:01:33.642Z,100793.06
2022-12-24T12:04:24.087Z,100790.78
2022-12-24T12:06:52.238Z,100800.97
2022-12-24T12:09:26.634Z,100795.56
2022-12-24T12:12:01.816Z,100796.78
2022-12-24T12:14:35.423Z,100801.81
2022-12-24T12:17:21.980Z,100804.50
2022-12-24T12:20:16.250Z,100813.03
2022-12-24T12:22:55.412Z,100807.38
2022-12-24T12:25:26.457Z,100805.47
2022-12-24T12:27:56.784Z,100810.47
2022-12-24T12:30:24.549Z,100810.03
2022-12-24T12:32:59.297Z,100806.28
2022-12-24T12:35:31.282Z,100812.34
2022-12-24T12:38:01.890Z,100812.13
2022-12-24T12:40:51.165Z,100805.44
2022-12-24T12:43:39.290Z,100810.41
2022-12-24T12:46:44.162Z,100822.50
2022-12-24T12:49:29.354Z,100801.19
2022-12-24T12:52:15.245Z,100808.47
2022-12-24T12:54:55.064Z,100810.31
2022-12-24T12:57:26.159Z,100808.19
2022-12-24T13:00:06.430Z,100810.66
2022-12-24T13:02:38.905Z,100810.41
2022-12-24T13:05:33.736Z,100815.22
2022-12-24T13:08:11.345Z,100821.41
2022-12-24T13:10:59.168Z,100822.94
2022-12-24T13:13:50.455Z,100835.03
2022-12-24T13:16:54.055Z,100844.22
2022-12-24T13:19:38.034Z,100845.03
2022-12-24T13:22:05.778Z,100846.88
2022-12-24T13:24:33.076Z,100854.84
2022-12-24T13:27:07.151Z,100857.34
2022-12-24T13:29:36.658Z,100867.19
2022-12-24T13:32:21.249Z,100869.47
2022-12-24T13:34:53.749Z,100867.97
2022-12-24T13:40:26.992Z,100876.28
2022-12-24T13:43:03.317Z,100887.78
2022-12-24T13:45:30.137Z,100877.44
2022-12-24T13:48:08.809Z,100884.66
2022-12-24T13:51:18.577Z,100887.78
2022-12-24T13:53:48.386Z,100893.19
2022-12-24T13:59:25.174Z,100883.19
2022-12-24T14:02:01.864Z,100872.94
2022-12-24T14:15:49.413Z,100890.97
2022-12-24T14:18:24.238Z,100893.28
2022-12-24T14:20:54.089Z,100879.88
2022-12-24T14:23:33.442Z,100897.84
2022-12-24T14:26:02.334Z,100897.22
2022-12-24T14:28:40.501Z,100896.63
2022-12-24T14:31:18.437Z,100893.06
2022-12-24T14:51:38.757Z,100920.50
2022-12-24T14:54:32.130Z,100928.88
2022-12-24T14:57:17.527Z,100934.31
2022-12-24T15:00:06.228Z,100932.66
2022-12-24T15:02:52.435Z,100936.47
2022-12-24T15:05:31.581Z,100930.63
2022-12-24T15:08:13.101Z,100937.72
2022-12-24T15:11:02.275Z,100933.16
2022-12-24T15:13:44.422Z,100948.66
2022-12-24T15:16:20.888Z,100943.41
2022-12-24T15:19:06.062Z,100948.84
2022-12-24T15:21:44.375Z,100940.28
2022-12-24T15:24:29.756Z,100951.75
2022-12-24T15:26:56.837Z,100963.69
2022-12-24T15:29:38.586Z,100968.66
2022-12-24T15:32:05.960Z,100981.44
2022-12-24T15:34:41.326Z,100978.91
2022-12-24T15:37:11.307Z,100986.63
2022-12-24T15:39:40.177Z,100981.44
2022-12-24T15:42:18.841Z,100989.31
2022-12-24T15:45:13.184Z,100995.56
2022-12-24T15:47:51.162Z,100992.47
2022-12-24T15:50:42.564Z,100996.00
2022-12-24T15:53:20.197Z,100992.06
2022-12-24T15:56:12.554Z,100991.06
2022-12-24T15:58:47.022Z,100990.88
2022-12-24T16:01:16.202Z,101005.75
2022-12-24T16:03:58.703Z,101008.66
2022-12-24T16:06:27.678Z,101005.75
2022-12-24T16:08:56.460Z,101003.88
2022-12-24T16:11:35.253Z,101004.72
2022-12-24T16:14:20.493Z,101009.00
2022-12-24T16:16:52.081Z,101017.44
2022-12-24T16:19:36.048Z,101019.06
2022-12-24T16:22:35.460Z,101023.72
2022-12-24T16:25:28.786Z,101039.53
2022-12-24T16:28:00.684Z,101036.88
2022-12-24T16:30:30.468Z,101046.19
2022-12-24T16:32:59.587Z,101045.50
2022-12-24T16:35:43.216Z,101047.22
2022-12-24T16:40:56.661Z,101053.03
2022-12-24T16:43:42.251Z,101046.81
2022-12-24T16:46:16.178Z,101058.75
2022-12-24T16:48:47.343Z,101059.38
2022-12-24T16:51:14.114Z,101058.09
2022-12-24T16:53:44.046Z,101054.16
2022-12-24T16:56:13.379Z,101059.00
2022-12-24T16:58:42.906Z,101057.94
2022-12-24T17:01:12.566Z,101073.38
2022-12-24T17:03:39.497Z,101070.06
2022-12-24T17:06:11.633Z,101077.59
2022-12-24T17:08:45.923Z,101083.38
2022-12-24T17:11:12.644Z,101085.47
2022-12-24T17:13:39.528Z,101091.81
2022-12-24T17:16:11.401Z,101092.84
2022-12-24T17:18:38.243Z,101093.25
2022-12-24T17:21:05.269Z,101100.38
2022-12-24T17:23:32.002Z,101096.38
2022-12-24T17:26:09.001Z,101100.19
2022-12-24T17:28:41.940Z,101096.00
2022-12-24T17:31:16.768Z,101109.41
2022-12-24T17:33:47.736Z,101107.31
2022-12-24T17:36:21.842Z,101115.00
2022-12-24T17:38:51.280Z,101111.25
2022-12-24T17:41:27.134Z,101117.72
2022-12-24T17:43:54.171Z,101117.34
2022-12-24T17:46:28.185Z,101120.66
2022-12-24T17:49:00.293Z,101129.88
2022-12-24T17:51:30.552Z,101124.81
2022-12-24T17:53:59.083Z,101135.50
2022-12-24T17:56:30.365Z,101139.47
2022-12-24T17:59:00.394Z,101142.84
2022-12-24T18:01:31.063Z,101144.50
2022-12-24T18:04:00.384Z,101139.47
2022-12-24T18:06:30.962Z,101145.78
2022-12-24T18:09:00.440Z,101148.06
2022-12-24T18:11:37.327Z,101150.34
2022-12-24T18:14:08.561Z,101156.19
2022-12-24T18:16:42.755Z,101158.91
2022-12-24T18:19:12.108Z,101160.22
2022-12-24T18:21:40.038Z,101166.25
2022-12-24T18:24:07.461Z,101162.94
2022-12-24T18:26:36.899Z,101167.47
2022-12-24T18:29:12.561Z,101175.81
2022-12-24T18:31:47.618Z,101177.34
2022-12-24T18:34:20.150Z,101182.97
2022-12-24T18:36:55.320Z,101178.00
2022-12-24T18:39:27.236Z,101189.25
2022-12-24T18:41:56.808Z,101184.44
2022-12-24T18:44:26.143Z,101182.56
2022-12-24T18:46:59.291Z,101181.94
2022-12-24T18:49:29.071Z,101180.25
2022-12-24T18:51:58.275Z,101181.72
2022-12-24T18:54:26.171Z,101183.59
2022-12-24T18:56:52.977Z,101182.19
2022-12-24T18:59:19.687Z,101182.16
2022-12-24T19:01:51.270Z,101189.69
2022-12-24T19:04:20.270Z,101191.75
2022-12-24T19:06:52.736Z,101191.75
2022-12-24T19:09:23.125Z,101195.75
2022-12-24T19:11:52.572Z,101190.94
2022-12-24T19:14:28.380Z,101191.38
2022-12-24T19:17:02.021Z,101188.22
2022-12-24T19:19:31.118Z,101198.03
2022-12-24T19:21:59.140Z,101189.25
2022-12-24T19:24:28.195Z,101189.69
2022-12-24T19:27:00.205Z,101188.63
2022-12-24T19:29:30.657Z,101198.03
2022-12-24T19:31:59.715Z,101198.47
2022-12-24T19:34:31.549Z,101198.69
2022-12-24T19:37:00.517Z,101198.47
2022-12-24T19:39:32.004Z,101190.94
2022-12-24T19:42:04.751Z,101192.41
2022-12-24T19:44:36.533Z,101195.78
2022-12-24T19:47:06.215Z,101200.63
2022-12-24T19:49:35.944Z,101204.56
2022-12-24T19:52:27.091Z,101217.34
2022-12-24T19:54:56.459Z,101208.16
2022-12-24T20:10:46.052Z,101213.63
2022-12-24T20:13:14.759Z,101217.38
2022-12-24T20:15:44.220Z,101219.44
2022-12-24T20:31:55.421Z,101258.31
2022-12-24T20:34:22.324Z,101260.81
2022-12-24T20:36:49.216Z,101261.81
2022-12-24T20:39:17.155Z,101270.44
2022-12-24T20:41:43.857Z,101264.81
2022-12-24T20:44:11.387Z,101263.34
2022-12-24T20:46:38.339Z,101258.31
2022-12-24T20:49:05.430Z,101266.06
2022-12-24T20:51:32.900Z,101269.41
2022-12-24T20:54:01.902Z,101280.66
2022-12-24T20:56:29.223Z,101279.19
2022-12-24T20:58:56.140Z,101277.94
2022-12-24T21:01:26.924Z,101280.03
2022-12-24T21:03:55.468Z,101278.78
2022-12-24T21:06:23.956Z,101281.28
2022-12-24T21:08:52.348Z,101280.44
2022-12-24T21:11:38.458Z,101287.94
2022-12-24T21:14:05.706Z,101277.50
2022-12-24T21:16:35.470Z,101301.50
2022-12-24T21:19:02.747Z,101300.25
2022-12-24T21:21:30.142Z,101294.59
2022-12-24T21:23:57.351Z,101304.38
2022-12-24T21:26:24.329Z,101302.50
2022-12-24T21:28:51.331Z,101309.19
2022-12-24T21:31:18.615Z,101320.84
2022-12-24T21:33:46.405Z,101320.41
2022-12-24T21:36:16.167Z,101322.09
2022-12-24T21:38:43.717Z,101324.38
2022-12-24T21:41:14.760Z,101326.25
2022-12-24T21:43:45.542Z,101323.13
2022-12-24T21:46:19.498Z,101335.88
2022-12-24T21:49:05.742Z,101333.97
2022-12-24T21:51:34.403Z,101332.25
2022-12-24T21:54:20.312Z,101337.63
2022-12-24T21:57:06.275Z,101340.28
2022-12-24T21:59:33.329Z,101340.69
2022-12-24T22:02:00.756Z,101349.41
2022-12-24T22:04:27.944Z,101347.78
2022-12-24T22:07:13.242Z,101346.91
2022-12-24T22:09:59.006Z,101355.03
2022-12-24T22:12:30.357Z,101359.00
2022-12-24T22:14:57.265Z,101367.34
2022-12-24T22:17:25.851Z,101369.38
2022-12-24T22:19:55.518Z,101348.53
2022-12-24T22:22:23.481Z,101349.78
2022-12-24T22:24:50.329Z,101353.53
2022-12-24T22:27:17.264Z,101350.63
2022-12-24T22:32:28.046Z,101358.13
2022-12-24T22:34:54.914Z,101355.22
2022-12-24T22:37:22.080Z,101345.81
2022-12-24T22:39:48.700Z,101342.25
2022-12-24T22:42:15.307Z,101351.47
2022-12-24T22:44:42.302Z,101347.66
2022-12-24T22:47:09.119Z,101343.94
2022-12-24T22:49:37.169Z,101337.03
2022-12-24T22:52:04.202Z,101340.97
2022-12-24T22:54:31.069Z,101345.56
2022-12-24T22:56:58.013Z,101343.03
2022-12-24T22:59:24.889Z,101338.25
2022-12-24T23:01:53.033Z,101341.19
2022-12-24T23:04:23.173Z,101332.63
2022-12-24T23:06:50.327Z,101338.09
2022-12-24T23:09:19.281Z,101339.78
2022-12-24T23:11:46.789Z,101343.59
2022-12-24T23:14:36.978Z,101336.72
2022-12-24T23:17:05.169Z,101327.56
2022-12-24T23:19:33.751Z,101328.59
2022-12-24T23:22:02.680Z,101326.25
2022-12-24T23:24:30.032Z,101335.63
2022-12-24T23:26:58.415Z,101340.81
2022-12-24T23:29:25.241Z,101351.03
2022-12-24T23:31:52.096Z,101331.41
2022-12-24T23:34:19.060Z,101337.84
2022-12-24T23:36:47.611Z,101341.41
2022-12-24T23:39:19.993Z,101335.50
2022-12-24T23:41:47.270Z,101344.22
2022-12-24T23:44:14.260Z,101340.28
2022-12-24T23:46:41.593Z,101350.75
2022-12-24T23:49:11.828Z,101351.00
2022-12-24T23:51:38.811Z,101353.06
2022-12-24T23:54:09.210Z,101345.31
2022-12-24T23:56:36.822Z,101341.47
2022-12-24T23:59:04.451Z,101345.91
